sensor_id;sensor_type;location;lat;lon;timestamp;P1;durP1;ratioP1;P2;durP2;ratioP2
22851;SDS011;11592;45.460;9.240;2023-02-05T00:01:23;25.75;;;10.30;;
22851;SDS011;11592;45.460;9.240;2023-02-05T00:03:50;25.92;;;10.30;;
22851;SDS011;11592;45.460;9.240;2023-02-05T00:06:16;26.90;;;10.52;;
22851;SDS011;11592;45.460;9.240;2023-02-05T00:08:44;24.98;;;10.63;;
22851;SDS011;11592;45.460;9.240;2023-02-05T00:11:10;23.48;;;9.10;;
22851;SDS011;11592;45.460;9.240;2023-02-05T00:13:38;22.92;;;9.18;;
22851;SDS011;11592;45.460;9.240;2023-02-05T00:16:08;23.42;;;9.48;;
22851;SDS011;11592;45.460;9.240;2023-02-05T00:18:35;21.98;;;9.32;;
22851;SDS011;11592;45.460;9.240;2023-02-05T00:21:03;25.85;;;8.00;;
22851;SDS011;11592;45.460;9.240;2023-02-05T00:23:31;24.80;;;8.73;;
22851;SDS011;11592;45.460;9.240;2023-02-05T00:26:00;22.52;;;7.85;;
22851;SDS011;11592;45.460;9.240;2023-02-05T00:28:30;21.30;;;7.93;;
22851;SDS011;11592;45.460;9.240;2023-02-05T00:31:00;20.05;;;7.28;;
22851;SDS011;11592;45.460;9.240;2023-02-05T00:33:33;17.80;;;7.38;;
22851;SDS011;11592;45.460;9.240;2023-02-05T00:36:00;17.27;;;6.88;;
22851;SDS011;11592;45.460;9.240;2023-02-05T00:38:27;17.20;;;6.72;;
22851;SDS011;11592;45.460;9.240;2023-02-05T00:40:53;17.13;;;6.50;;
22851;SDS011;11592;45.460;9.240;2023-02-05T00:43:20;17.08;;;6.85;;
22851;SDS011;11592;45.460;9.240;2023-02-05T00:45:47;18.20;;;6.82;;
22851;SDS011;11592;45.460;9.240;2023-02-05T00:48:14;20.08;;;7.00;;
22851;SDS011;11592;45.460;9.240;2023-02-05T00:50:41;16.13;;;6.22;;
22851;SDS011;11592;45.460;9.240;2023-02-05T00:53:08;15.57;;;5.88;;
22851;SDS011;11592;45.460;9.240;2023-02-05T00:55:34;15.13;;;5.32;;
22851;SDS011;11592;45.460;9.240;2023-02-05T00:58:01;20.70;;;5.65;;
22851;SDS011;11592;45.460;9.240;2023-02-05T01:00:28;16.13;;;5.35;;
22851;SDS011;11592;45.460;9.240;2023-02-05T01:02:55;17.58;;;5.22;;
22851;SDS011;11592;45.460;9.240;2023-02-05T01:05:21;16.83;;;5.30;;
22851;SDS011;11592;45.460;9.240;2023-02-05T01:07:48;14.55;;;4.60;;
22851;SDS011;11592;45.460;9.240;2023-02-05T01:10:15;9.88;;;3.95;;
22851;SDS011;11592;45.460;9.240;2023-02-05T01:12:42;10.13;;;4.30;;
22851;SDS011;11592;45.460;9.240;2023-02-05T01:15:11;14.95;;;4.25;;
22851;SDS011;11592;45.460;9.240;2023-02-05T01:17:38;10.52;;;4.18;;
22851;SDS011;11592;45.460;9.240;2023-02-05T01:20:05;14.75;;;3.85;;
22851;SDS011;11592;45.460;9.240;2023-02-05T01:22:33;10.57;;;3.95;;
22851;SDS011;11592;45.460;9.240;2023-02-05T01:25:00;15.70;;;4.22;;
22851;SDS011;11592;45.460;9.240;2023-02-05T01:27:27;10.98;;;3.67;;
22851;SDS011;11592;45.460;9.240;2023-02-05T01:29:53;17.63;;;4.32;;
22851;SDS011;11592;45.460;9.240;2023-02-05T01:32:20;11.88;;;3.45;;
22851;SDS011;11592;45.460;9.240;2023-02-05T01:34:47;8.32;;;3.92;;
22851;SDS011;11592;45.460;9.240;2023-02-05T01:37:14;15.02;;;4.32;;
22851;SDS011;11592;45.460;9.240;2023-02-05T01:39:41;17.08;;;4.10;;
22851;SDS011;11592;45.460;9.240;2023-02-05T01:42:18;14.88;;;4.30;;
22851;SDS011;11592;45.460;9.240;2023-02-05T01:48:03;18.42;;;4.70;;
22851;SDS011;11592;45.460;9.240;2023-02-05T01:50:41;13.55;;;4.18;;
22851;SDS011;11592;45.460;9.240;2023-02-05T01:53:14;18.20;;;4.50;;
22851;SDS011;11592;45.460;9.240;2023-02-05T01:55:50;17.00;;;4.05;;
22851;SDS011;11592;45.460;9.240;2023-02-05T01:58:23;10.95;;;3.72;;
22851;SDS011;11592;45.460;9.240;2023-02-05T02:00:54;15.65;;;4.40;;
22851;SDS011;11592;45.460;9.240;2023-02-05T02:03:22;15.68;;;4.35;;
22851;SDS011;11592;45.460;9.240;2023-02-05T02:05:53;14.15;;;4.20;;
22851;SDS011;11592;45.460;9.240;2023-02-05T02:08:21;15.20;;;4.38;;
22851;SDS011;11592;45.460;9.240;2023-02-05T02:10:48;12.77;;;4.10;;
22851;SDS011;11592;45.460;9.240;2023-02-05T02:13:18;13.43;;;4.05;;
22851;SDS011;11592;45.460;9.240;2023-02-05T02:15:48;15.63;;;3.75;;
22851;SDS011;11592;45.460;9.240;2023-02-05T02:18:15;16.52;;;4.60;;
22851;SDS011;11592;45.460;9.240;2023-02-05T02:26:22;11.18;;;3.60;;
22851;SDS011;11592;45.460;9.240;2023-02-05T02:29:14;14.32;;;4.05;;
22851;SDS011;11592;45.460;9.240;2023-02-05T02:32:09;14.95;;;3.55;;
22851;SDS011;11592;45.460;9.240;2023-02-05T02:34:47;12.17;;;3.77;;
22851;SDS011;11592;45.460;9.240;2023-02-05T02:39:59;9.15;;;3.63;;
22851;SDS011;11592;45.460;9.240;2023-02-05T02:42:44;18.35;;;4.00;;
22851;SDS011;11592;45.460;9.240;2023-02-05T02:45:17;10.68;;;3.67;;
22851;SDS011;11592;45.460;9.240;2023-02-05T02:47:51;10.55;;;3.65;;
22851;SDS011;11592;45.460;9.240;2023-02-05T02:50:25;10.75;;;3.78;;
22851;SDS011;11592;45.460;9.240;2023-02-05T02:53:02;10.63;;;4.65;;
22851;SDS011;11592;45.460;9.240;2023-02-05T02:55:35;12.63;;;4.22;;
22851;SDS011;11592;45.460;9.240;2023-02-05T02:58:06;19.00;;;4.20;;
22851;SDS011;11592;45.460;9.240;2023-02-05T03:00:36;9.60;;;3.78;;
22851;SDS011;11592;45.460;9.240;2023-02-05T03:03:05;17.40;;;4.22;;
22851;SDS011;11592;45.460;9.240;2023-02-05T03:05:34;10.75;;;3.78;;
22851;SDS011;11592;45.460;9.240;2023-02-05T03:08:04;12.55;;;3.45;;
22851;SDS011;11592;45.460;9.240;2023-02-05T03:10:37;11.23;;;3.40;;
22851;SDS011;11592;45.460;9.240;2023-02-05T03:13:10;10.98;;;3.42;;
22851;SDS011;11592;45.460;9.240;2023-02-05T03:15:39;12.13;;;3.67;;
22851;SDS011;11592;45.460;9.240;2023-02-05T03:18:07;13.68;;;4.15;;
22851;SDS011;11592;45.460;9.240;2023-02-05T03:20:35;9.38;;;3.83;;
22851;SDS011;11592;45.460;9.240;2023-02-05T03:23:08;15.80;;;3.70;;
22851;SDS011;11592;45.460;9.240;2023-02-05T03:25:34;9.10;;;3.58;;
22851;SDS011;11592;45.460;9.240;2023-02-05T03:28:01;13.02;;;3.75;;
22851;SDS011;11592;45.460;9.240;2023-02-05T03:30:31;12.70;;;3.90;;
22851;SDS011;11592;45.460;9.240;2023-02-05T03:33:23;11.27;;;3.80;;
22851;SDS011;11592;45.460;9.240;2023-02-05T03:52:50;9.20;;;3.13;;
22851;SDS011;11592;45.460;9.240;2023-02-05T03:55:28;6.75;;;2.97;;
22851;SDS011;11592;45.460;9.240;2023-02-05T03:58:03;13.32;;;3.63;;
22851;SDS011;11592;45.460;9.240;2023-02-05T04:00:40;13.43;;;3.15;;
22851;SDS011;11592;45.460;9.240;2023-02-05T04:03:08;14.60;;;3.30;;
22851;SDS011;11592;45.460;9.240;2023-02-05T04:05:35;11.18;;;3.58;;
22851;SDS011;11592;45.460;9.240;2023-02-05T04:08:02;10.00;;;2.85;;
22851;SDS011;11592;45.460;9.240;2023-02-05T04:10:29;9.15;;;3.08;;
22851;SDS011;11592;45.460;9.240;2023-02-05T04:12:56;9.48;;;2.92;;
22851;SDS011;11592;45.460;9.240;2023-02-05T04:15:23;11.25;;;2.85;;
22851;SDS011;11592;45.460;9.240;2023-02-05T04:17:50;9.65;;;3.13;;
22851;SDS011;11592;45.460;9.240;2023-02-05T04:20:16;12.80;;;3.25;;
22851;SDS011;11592;45.460;9.240;2023-02-05T04:22:43;14.02;;;3.33;;
22851;SDS011;11592;45.460;9.240;2023-02-05T04:25:10;17.08;;;4.00;;
22851;SDS011;11592;45.460;9.240;2023-02-05T04:27:37;11.25;;;2.72;;
22851;SDS011;11592;45.460;9.240;2023-02-05T04:30:04;13.70;;;2.88;;
22851;SDS011;11592;45.460;9.240;2023-02-05T04:32:32;12.40;;;2.58;;
22851;SDS011;11592;45.460;9.240;2023-02-05T04:34:58;13.63;;;2.33;;
22851;SDS011;11592;45.460;9.240;2023-02-05T04:37:25;11.60;;;2.53;;
22851;SDS011;11592;45.460;9.240;2023-02-05T04:39:52;13.52;;;2.72;;
22851;SDS011;11592;45.460;9.240;2023-02-05T04:42:19;7.10;;;2.88;;
22851;SDS011;11592;45.460;9.240;2023-02-05T04:44:45;9.75;;;2.80;;
22851;SDS011;11592;45.460;9.240;2023-02-05T04:47:12;8.13;;;2.28;;
22851;SDS011;11592;45.460;9.240;2023-02-05T04:49:39;9.75;;;2.80;;
22851;SDS011;11592;45.460;9.240;2023-02-05T04:52:06;11.45;;;2.30;;
22851;SDS011;11592;45.460;9.240;2023-02-05T04:54:33;9.00;;;2.35;;
22851;SDS011;11592;45.460;9.240;2023-02-05T04:57:01;8.57;;;2.47;;
22851;SDS011;11592;45.460;9.240;2023-02-05T04:59:28;7.40;;;2.50;;
22851;SDS011;11592;45.460;9.240;2023-02-05T05:01:57;10.88;;;2.40;;
22851;SDS011;11592;45.460;9.240;2023-02-05T05:04:24;11.60;;;2.53;;
22851;SDS011;11592;45.460;9.240;2023-02-05T05:06:51;6.70;;;2.08;;
22851;SDS011;11592;45.460;9.240;2023-02-05T05:09:18;8.45;;;3.08;;
22851;SDS011;11592;45.460;9.240;2023-02-05T05:11:52;8.63;;;2.00;;
22851;SDS011;11592;45.460;9.240;2023-02-05T05:14:21;8.18;;;2.75;;
22851;SDS011;11592;45.460;9.240;2023-02-05T05:16:48;8.77;;;2.83;;
22851;SDS011;11592;45.460;9.240;2023-02-05T05:19:15;13.82;;;2.55;;
22851;SDS011;11592;45.460;9.240;2023-02-05T05:21:42;8.15;;;2.80;;
22851;SDS011;11592;45.460;9.240;2023-02-05T05:24:09;10.23;;;2.47;;
22851;SDS011;11592;45.460;9.240;2023-02-05T05:26:36;9.15;;;2.67;;
22851;SDS011;11592;45.460;9.240;2023-02-05T05:29:04;12.73;;;2.88;;
22851;SDS011;11592;45.460;9.240;2023-02-05T05:31:31;8.07;;;2.13;;
22851;SDS011;11592;45.460;9.240;2023-02-05T05:33:58;9.85;;;2.80;;
22851;SDS011;11592;45.460;9.240;2023-02-05T05:36:25;11.50;;;2.55;;
22851;SDS011;11592;45.460;9.240;2023-02-05T05:38:51;11.23;;;2.50;;
22851;SDS011;11592;45.460;9.240;2023-02-05T05:41:21;9.02;;;2.35;;
22851;SDS011;11592;45.460;9.240;2023-02-05T05:44:08;9.40;;;2.80;;
22851;SDS011;11592;45.460;9.240;2023-02-05T05:46:35;11.35;;;2.80;;
22851;SDS011;11592;45.460;9.240;2023-02-05T05:49:02;7.95;;;2.38;;
22851;SDS011;11592;45.460;9.240;2023-02-05T05:51:29;9.40;;;3.42;;
22851;SDS011;11592;45.460;9.240;2023-02-05T05:53:57;7.45;;;2.35;;
22851;SDS011;11592;45.460;9.240;2023-02-05T05:56:25;15.07;;;2.95;;
22851;SDS011;11592;45.460;9.240;2023-02-05T05:58:51;15.13;;;2.20;;
22851;SDS011;11592;45.460;9.240;2023-02-05T06:01:18;11.95;;;2.55;;
22851;SDS011;11592;45.460;9.240;2023-02-05T06:03:47;5.65;;;2.15;;
22851;SDS011;11592;45.460;9.240;2023-02-05T06:06:14;8.77;;;2.50;;
22851;SDS011;11592;45.460;9.240;2023-02-05T06:08:41;10.80;;;3.35;;
22851;SDS011;11592;45.460;9.240;2023-02-05T06:11:08;10.43;;;2.63;;
22851;SDS011;11592;45.460;9.240;2023-02-05T06:13:35;8.13;;;2.05;;
22851;SDS011;11592;45.460;9.240;2023-02-05T06:16:02;7.13;;;2.40;;
22851;SDS011;11592;45.460;9.240;2023-02-05T06:18:29;12.48;;;2.92;;
22851;SDS011;11592;45.460;9.240;2023-02-05T06:20:56;4.38;;;2.47;;
22851;SDS011;11592;45.460;9.240;2023-02-05T06:23:23;9.85;;;2.78;;
22851;SDS011;11592;45.460;9.240;2023-02-05T06:25:50;8.15;;;2.35;;
22851;SDS011;11592;45.460;9.240;2023-02-05T06:28:17;6.07;;;2.28;;
22851;SDS011;11592;45.460;9.240;2023-02-05T06:30:44;10.25;;;2.30;;
22851;SDS011;11592;45.460;9.240;2023-02-05T06:33:11;7.88;;;2.63;;
22851;SDS011;11592;45.460;9.240;2023-02-05T06:35:38;12.52;;;2.72;;
22851;SDS011;11592;45.460;9.240;2023-02-05T06:38:06;13.98;;;2.83;;
22851;SDS011;11592;45.460;9.240;2023-02-05T06:40:33;14.77;;;2.50;;
22851;SDS011;11592;45.460;9.240;2023-02-05T06:42:59;10.27;;;2.20;;
22851;SDS011;11592;45.460;9.240;2023-02-05T06:45:26;12.27;;;2.67;;
22851;SDS011;11592;45.460;9.240;2023-02-05T06:47:53;8.00;;;2.40;;
22851;SDS011;11592;45.460;9.240;2023-02-05T06:50:21;10.98;;;2.63;;
22851;SDS011;11592;45.460;9.240;2023-02-05T06:52:49;11.05;;;2.38;;
22851;SDS011;11592;45.460;9.240;2023-02-05T06:55:16;9.32;;;2.45;;
22851;SDS011;11592;45.460;9.240;2023-02-05T06:57:43;6.93;;;2.22;;
22851;SDS011;11592;45.460;9.240;2023-02-05T07:00:10;15.23;;;2.72;;
22851;SDS011;11592;45.460;9.240;2023-02-05T07:02:38;13.40;;;2.45;;
22851;SDS011;11592;45.460;9.240;2023-02-05T07:05:05;8.98;;;2.45;;
22851;SDS011;11592;45.460;9.240;2023-02-05T07:07:32;6.80;;;2.58;;
22851;SDS011;11592;45.460;9.240;2023-02-05T07:09:59;12.48;;;2.67;;
22851;SDS011;11592;45.460;9.240;2023-02-05T07:12:26;11.25;;;2.78;;
22851;SDS011;11592;45.460;9.240;2023-02-05T07:14:53;11.27;;;3.00;;
22851;SDS011;11592;45.460;9.240;2023-02-05T07:17:19;8.98;;;2.70;;
22851;SDS011;11592;45.460;9.240;2023-02-05T07:19:46;8.95;;;2.70;;
22851;SDS011;11592;45.460;9.240;2023-02-05T07:22:13;17.30;;;2.70;;
22851;SDS011;11592;45.460;9.240;2023-02-05T07:24:41;11.65;;;2.70;;
22851;SDS011;11592;45.460;9.240;2023-02-05T07:27:07;8.02;;;2.35;;
22851;SDS011;11592;45.460;9.240;2023-02-05T07:29:34;10.23;;;2.75;;
22851;SDS011;11592;45.460;9.240;2023-02-05T07:32:01;9.20;;;3.47;;
22851;SDS011;11592;45.460;9.240;2023-02-05T07:34:28;12.02;;;3.03;;
22851;SDS011;11592;45.460;9.240;2023-02-05T07:36:55;7.97;;;2.28;;
22851;SDS011;11592;45.460;9.240;2023-02-05T07:39:21;7.55;;;2.63;;
22851;SDS011;11592;45.460;9.240;2023-02-05T07:41:48;15.07;;;2.45;;
22851;SDS011;11592;45.460;9.240;2023-02-05T07:44:16;14.73;;;2.78;;
22851;SDS011;11592;45.460;9.240;2023-02-05T07:46:43;5.35;;;2.53;;
22851;SDS011;11592;45.460;9.240;2023-02-05T07:49:10;12.25;;;2.90;;
22851;SDS011;11592;45.460;9.240;2023-02-05T07:51:36;9.55;;;2.85;;
22851;SDS011;11592;45.460;9.240;2023-02-05T07:54:07;8.27;;;2.90;;
22851;SDS011;11592;45.460;9.240;2023-02-05T07:56:35;9.70;;;2.38;;
22851;SDS011;11592;45.460;9.240;2023-02-05T07:59:01;9.00;;;2.58;;
22851;SDS011;11592;45.460;9.240;2023-02-05T08:01:28;10.90;;;3.13;;
22851;SDS011;11592;45.460;9.240;2023-02-05T08:03:55;8.25;;;2.70;;
22851;SDS011;11592;45.460;9.240;2023-02-05T08:06:22;8.40;;;2.75;;
22851;SDS011;11592;45.460;9.240;2023-02-05T08:08:49;8.68;;;2.55;;
22851;SDS011;11592;45.460;9.240;2023-02-05T08:11:17;7.88;;;2.38;;
22851;SDS011;11592;45.460;9.240;2023-02-05T08:13:44;13.38;;;2.65;;
22851;SDS011;11592;45.460;9.240;2023-02-05T08:16:11;8.63;;;2.50;;
22851;SDS011;11592;45.460;9.240;2023-02-05T08:18:41;6.15;;;2.67;;
22851;SDS011;11592;45.460;9.240;2023-02-05T08:21:12;8.85;;;2.80;;
22851;SDS011;11592;45.460;9.240;2023-02-05T08:23:38;11.88;;;4.18;;
22851;SDS011;11592;45.460;9.240;2023-02-05T08:26:05;10.88;;;2.55;;
22851;SDS011;11592;45.460;9.240;2023-02-05T08:28:32;8.73;;;2.78;;
22851;SDS011;11592;45.460;9.240;2023-02-05T08:30:59;9.07;;;2.42;;
22851;SDS011;11592;45.460;9.240;2023-02-05T08:33:26;9.15;;;2.65;;
22851;SDS011;11592;45.460;9.240;2023-02-05T08:35:53;11.55;;;2.97;;
22851;SDS011;11592;45.460;9.240;2023-02-05T08:38:19;7.00;;;2.30;;
22851;SDS011;11592;45.460;9.240;2023-02-05T08:40:46;12.95;;;2.53;;
22851;SDS011;11592;45.460;9.240;2023-02-05T08:43:13;11.23;;;2.75;;
22851;SDS011;11592;45.460;9.240;2023-02-05T08:45:44;9.07;;;2.63;;
22851;SDS011;11592;45.460;9.240;2023-02-05T08:48:12;11.32;;;2.80;;
22851;SDS011;11592;45.460;9.240;2023-02-05T08:50:38;9.85;;;2.90;;
22851;SDS011;11592;45.460;9.240;2023-02-05T08:53:05;11.27;;;2.30;;
22851;SDS011;11592;45.460;9.240;2023-02-05T08:55:32;8.88;;;2.33;;
22851;SDS011;11592;45.460;9.240;2023-02-05T08:57:59;10.40;;;2.30;;
22851;SDS011;11592;45.460;9.240;2023-02-05T09:00:26;6.03;;;2.40;;
22851;SDS011;11592;45.460;9.240;2023-02-05T09:02:53;9.95;;;2.47;;
22851;SDS011;11592;45.460;9.240;2023-02-05T09:05:20;5.75;;;2.42;;
22851;SDS011;11592;45.460;9.240;2023-02-05T09:07:47;10.40;;;2.20;;
22851;SDS011;11592;45.460;9.240;2023-02-05T09:10:14;8.70;;;2.30;;
22851;SDS011;11592;45.460;9.240;2023-02-05T09:12:41;14.52;;;3.13;;
22851;SDS011;11592;45.460;9.240;2023-02-05T09:15:08;9.75;;;2.75;;
22851;SDS011;11592;45.460;9.240;2023-02-05T09:17:35;8.10;;;2.30;;
22851;SDS011;11592;45.460;9.240;2023-02-05T09:20:02;13.27;;;2.17;;
22851;SDS011;11592;45.460;9.240;2023-02-05T09:22:29;10.60;;;2.58;;
22851;SDS011;11592;45.460;9.240;2023-02-05T09:24:56;11.18;;;2.03;;
22851;SDS011;11592;45.460;9.240;2023-02-05T09:27:23;6.95;;;2.20;;
22851;SDS011;11592;45.460;9.240;2023-02-05T09:29:50;8.25;;;2.03;;
22851;SDS011;11592;45.460;9.240;2023-02-05T09:32:16;8.23;;;1.90;;
22851;SDS011;11592;45.460;9.240;2023-02-05T09:34:43;5.90;;;2.00;;
22851;SDS011;11592;45.460;9.240;2023-02-05T09:37:10;8.07;;;1.90;;
22851;SDS011;11592;45.460;9.240;2023-02-05T09:39:37;13.90;;;2.92;;
22851;SDS011;11592;45.460;9.240;2023-02-05T09:42:35;10.52;;;2.05;;
22851;SDS011;11592;45.460;9.240;2023-02-05T09:45:30;7.82;;;2.08;;
22851;SDS011;11592;45.460;9.240;2023-02-05T09:48:07;6.78;;;1.75;;
22851;SDS011;11592;45.460;9.240;2023-02-05T09:50:39;7.10;;;1.67;;
22851;SDS011;11592;45.460;9.240;2023-02-05T09:53:09;7.72;;;2.17;;
22851;SDS011;11592;45.460;9.240;2023-02-05T09:55:39;9.27;;;2.03;;
22851;SDS011;11592;45.460;9.240;2023-02-05T09:58:17;8.52;;;1.77;;
22851;SDS011;11592;45.460;9.240;2023-02-05T10:00:50;7.47;;;2.30;;
22851;SDS011;11592;45.460;9.240;2023-02-05T10:11:39;11.57;;;2.53;;
22851;SDS011;11592;45.460;9.240;2023-02-05T10:19:30;6.10;;;1.90;;
22851;SDS011;11592;45.460;9.240;2023-02-05T10:30:35;8.02;;;2.08;;
22851;SDS011;11592;45.460;9.240;2023-02-05T10:33:30;11.82;;;2.00;;
22851;SDS011;11592;45.460;9.240;2023-02-05T10:36:12;8.85;;;2.28;;
22851;SDS011;11592;45.460;9.240;2023-02-05T10:38:42;5.65;;;1.90;;
22851;SDS011;11592;45.460;9.240;2023-02-05T10:46:52;6.00;;;2.00;;
22851;SDS011;11592;45.460;9.240;2023-02-05T10:49:27;5.13;;;2.13;;
22851;SDS011;11592;45.460;9.240;2023-02-05T10:52:13;11.23;;;1.90;;
22851;SDS011;11592;45.460;9.240;2023-02-05T11:06:13;9.05;;;1.80;;
22851;SDS011;11592;45.460;9.240;2023-02-05T11:08:41;12.40;;;1.80;;
22851;SDS011;11592;45.460;9.240;2023-02-05T11:11:23;7.10;;;1.73;;
22851;SDS011;11592;45.460;9.240;2023-02-05T11:13:59;7.80;;;1.90;;
22851;SDS011;11592;45.460;9.240;2023-02-05T11:16:42;3.80;;;1.65;;
22851;SDS011;11592;45.460;9.240;2023-02-05T11:19:17;4.35;;;1.50;;
22851;SDS011;11592;45.460;9.240;2023-02-05T11:24:23;8.68;;;1.85;;
22851;SDS011;11592;45.460;9.240;2023-02-05T11:40:32;7.85;;;1.60;;
22851;SDS011;11592;45.460;9.240;2023-02-05T11:43:07;6.85;;;1.75;;
22851;SDS011;11592;45.460;9.240;2023-02-05T11:45:46;5.90;;;1.70;;
22851;SDS011;11592;45.460;9.240;2023-02-05T11:48:32;5.57;;;1.55;;
22851;SDS011;11592;45.460;9.240;2023-02-05T11:51:04;6.60;;;1.80;;
22851;SDS011;11592;45.460;9.240;2023-02-05T12:02:34;4.78;;;1.70;;
22851;SDS011;11592;45.460;9.240;2023-02-05T12:05:06;4.75;;;1.73;;
22851;SDS011;11592;45.460;9.240;2023-02-05T12:17:26;7.60;;;2.20;;
22851;SDS011;11592;45.460;9.240;2023-02-05T12:20:18;8.65;;;1.52;;
22851;SDS011;11592;45.460;9.240;2023-02-05T12:37:27;4.18;;;1.58;;
22851;SDS011;11592;45.460;9.240;2023-02-05T12:40:22;5.03;;;1.60;;
22851;SDS011;11592;45.460;9.240;2023-02-05T12:57:10;4.47;;;1.48;;
22851;SDS011;11592;45.460;9.240;2023-02-05T13:06:04;4.40;;;1.77;;
22851;SDS011;11592;45.460;9.240;2023-02-05T13:12:31;5.70;;;1.60;;
22851;SDS011;11592;45.460;9.240;2023-02-05T13:17:50;8.30;;;1.52;;
22851;SDS011;11592;45.460;9.240;2023-02-05T13:20:32;4.97;;;1.80;;
22851;SDS011;11592;45.460;9.240;2023-02-05T13:23:26;5.45;;;1.73;;
22851;SDS011;11592;45.460;9.240;2023-02-05T13:43:36;2.85;;;1.65;;
22851;SDS011;11592;45.460;9.240;2023-02-05T13:46:29;3.10;;;1.50;;
22851;SDS011;11592;45.460;9.240;2023-02-05T13:49:03;3.58;;;1.45;;
22851;SDS011;11592;45.460;9.240;2023-02-05T13:55:06;3.20;;;1.50;;
22851;SDS011;11592;45.460;9.240;2023-02-05T14:04:19;5.35;;;1.77;;
22851;SDS011;11592;45.460;9.240;2023-02-05T14:07:03;5.55;;;1.95;;
22851;SDS011;11592;45.460;9.240;2023-02-05T14:23:57;5.60;;;1.80;;
22851;SDS011;11592;45.460;9.240;2023-02-05T14:38:41;5.95;;;2.13;;
22851;SDS011;11592;45.460;9.240;2023-02-05T14:41:11;3.83;;;1.80;;
22851;SDS011;11592;45.460;9.240;2023-02-05T14:49:35;6.35;;;1.52;;
22851;SDS011;11592;45.460;9.240;2023-02-05T14:52:06;5.20;;;1.58;;
22851;SDS011;11592;45.460;9.240;2023-02-05T14:54:43;5.07;;;1.90;;
22851;SDS011;11592;45.460;9.240;2023-02-05T15:03:23;7.60;;;1.88;;
22851;SDS011;11592;45.460;9.240;2023-02-05T15:12:18;5.25;;;1.60;;
22851;SDS011;11592;45.460;9.240;2023-02-05T15:15:15;4.90;;;1.90;;
22851;SDS011;11592;45.460;9.240;2023-02-05T15:21:03;13.93;;;1.92;;
22851;SDS011;11592;45.460;9.240;2023-02-05T15:23:32;5.13;;;1.95;;
22851;SDS011;11592;45.460;9.240;2023-02-05T15:26:06;4.53;;;1.73;;
22851;SDS011;11592;45.460;9.240;2023-02-05T15:28:48;6.55;;;2.05;;
22851;SDS011;11592;45.460;9.240;2023-02-05T15:37:21;4.45;;;1.65;;
22851;SDS011;11592;45.460;9.240;2023-02-05T15:39:58;9.13;;;1.98;;
22851;SDS011;11592;45.460;9.240;2023-02-05T15:42:43;8.05;;;1.85;;
22851;SDS011;11592;45.460;9.240;2023-02-05T15:47:57;5.95;;;1.80;;
22851;SDS011;11592;45.460;9.240;2023-02-05T15:54:18;8.35;;;1.73;;
22851;SDS011;11592;45.460;9.240;2023-02-05T15:56:49;6.13;;;1.67;;
22851;SDS011;11592;45.460;9.240;2023-02-05T15:59:18;5.57;;;1.67;;
22851;SDS011;11592;45.460;9.240;2023-02-05T16:02:00;7.40;;;1.77;;
22851;SDS011;11592;45.460;9.240;2023-02-05T16:04:41;7.15;;;1.92;;
22851;SDS011;11592;45.460;9.240;2023-02-05T16:07:19;6.30;;;1.80;;
22851;SDS011;11592;45.460;9.240;2023-02-05T16:10:01;4.13;;;2.00;;
22851;SDS011;11592;45.460;9.240;2023-02-05T16:12:57;6.90;;;1.67;;
22851;SDS011;11592;45.460;9.240;2023-02-05T16:15:32;6.20;;;2.00;;
22851;SDS011;11592;45.460;9.240;2023-02-05T16:18:19;5.78;;;1.70;;
22851;SDS011;11592;45.460;9.240;2023-02-05T16:21:03;3.55;;;1.63;;
22851;SDS011;11592;45.460;9.240;2023-02-05T16:23:38;7.43;;;1.77;;
22851;SDS011;11592;45.460;9.240;2023-02-05T16:26:13;3.92;;;1.60;;
22851;SDS011;11592;45.460;9.240;2023-02-05T16:28:57;8.45;;;1.75;;
22851;SDS011;11592;45.460;9.240;2023-02-05T16:31:31;7.53;;;2.10;;
22851;SDS011;11592;45.460;9.240;2023-02-05T16:34:04;6.50;;;1.77;;
22851;SDS011;11592;45.460;9.240;2023-02-05T16:36:51;2.85;;;1.50;;
22851;SDS011;11592;45.460;9.240;2023-02-05T16:42:07;5.15;;;2.25;;
22851;SDS011;11592;45.460;9.240;2023-02-05T16:44:47;6.85;;;1.75;;
22851;SDS011;11592;45.460;9.240;2023-02-05T16:47:15;6.05;;;1.83;;
22851;SDS011;11592;45.460;9.240;2023-02-05T16:49:45;7.18;;;2.10;;
22851;SDS011;11592;45.460;9.240;2023-02-05T16:52:34;5.35;;;2.00;;
22851;SDS011;11592;45.460;9.240;2023-02-05T16:55:05;7.38;;;2.60;;
22851;SDS011;11592;45.460;9.240;2023-02-05T16:57:55;7.65;;;2.40;;
22851;SDS011;11592;45.460;9.240;2023-02-05T17:00:30;11.37;;;2.73;;
22851;SDS011;11592;45.460;9.240;2023-02-05T17:03:02;6.20;;;2.10;;
22851;SDS011;11592;45.460;9.240;2023-02-05T17:05:34;6.97;;;2.10;;
22851;SDS011;11592;45.460;9.240;2023-02-05T17:08:08;6.85;;;2.00;;
22851;SDS011;11592;45.460;9.240;2023-02-05T17:10:53;8.73;;;2.33;;
22851;SDS011;11592;45.460;9.240;2023-02-05T17:13:37;6.97;;;1.90;;
22851;SDS011;11592;45.460;9.240;2023-02-05T17:16:18;4.93;;;2.00;;
22851;SDS011;11592;45.460;9.240;2023-02-05T17:18:59;5.82;;;2.08;;
22851;SDS011;11592;45.460;9.240;2023-02-05T17:21:34;6.35;;;2.15;;
22851;SDS011;11592;45.460;9.240;2023-02-05T17:24:02;6.30;;;2.50;;
22851;SDS011;11592;45.460;9.240;2023-02-05T17:26:36;5.78;;;2.13;;
22851;SDS011;11592;45.460;9.240;2023-02-05T17:29:05;6.38;;;2.30;;
22851;SDS011;11592;45.460;9.240;2023-02-05T17:31:36;7.20;;;2.20;;
22851;SDS011;11592;45.460;9.240;2023-02-05T17:34:04;5.72;;;2.17;;
22851;SDS011;11592;45.460;9.240;2023-02-05T17:36:31;8.52;;;2.40;;
22851;SDS011;11592;45.460;9.240;2023-02-05T17:38:58;6.22;;;2.17;;
22851;SDS011;11592;45.460;9.240;2023-02-05T17:41:29;5.50;;;2.50;;
22851;SDS011;11592;45.460;9.240;2023-02-05T17:44:19;4.75;;;2.47;;
22851;SDS011;11592;45.460;9.240;2023-02-05T17:46:45;19.98;;;2.63;;
22851;SDS011;11592;45.460;9.240;2023-02-05T17:49:12;6.57;;;2.20;;
22851;SDS011;11592;45.460;9.240;2023-02-05T17:51:39;6.97;;;2.28;;
22851;SDS011;11592;45.460;9.240;2023-02-05T17:54:11;5.88;;;2.17;;
22851;SDS011;11592;45.460;9.240;2023-02-05T17:56:43;10.10;;;2.53;;
22851;SDS011;11592;45.460;9.240;2023-02-05T17:59:11;5.05;;;2.85;;
22851;SDS011;11592;45.460;9.240;2023-02-05T18:01:40;5.15;;;2.28;;
22851;SDS011;11592;45.460;9.240;2023-02-05T18:04:07;7.57;;;2.88;;
22851;SDS011;11592;45.460;9.240;2023-02-05T18:06:34;7.70;;;2.40;;
22851;SDS011;11592;45.460;9.240;2023-02-05T18:09:02;6.97;;;2.53;;
22851;SDS011;11592;45.460;9.240;2023-02-05T18:11:29;7.13;;;2.63;;
22851;SDS011;11592;45.460;9.240;2023-02-05T18:13:57;7.25;;;2.60;;
22851;SDS011;11592;45.460;9.240;2023-02-05T18:16:24;8.77;;;3.00;;
22851;SDS011;11592;45.460;9.240;2023-02-05T18:18:51;4.90;;;2.30;;
22851;SDS011;11592;45.460;9.240;2023-02-05T18:21:18;11.65;;;2.80;;
22851;SDS011;11592;45.460;9.240;2023-02-05T18:23:47;11.65;;;3.05;;
22851;SDS011;11592;45.460;9.240;2023-02-05T18:26:18;8.13;;;2.95;;
22851;SDS011;11592;45.460;9.240;2023-02-05T18:28:45;5.32;;;2.20;;
22851;SDS011;11592;45.460;9.240;2023-02-05T18:31:12;10.40;;;2.45;;
22851;SDS011;11592;45.460;9.240;2023-02-05T18:33:40;7.13;;;2.40;;
22851;SDS011;11592;45.460;9.240;2023-02-05T18:36:10;7.78;;;2.65;;
22851;SDS011;11592;45.460;9.240;2023-02-05T18:38:38;5.47;;;2.95;;
22851;SDS011;11592;45.460;9.240;2023-02-05T18:41:15;4.05;;;2.30;;
22851;SDS011;11592;45.460;9.240;2023-02-05T18:43:43;6.38;;;2.25;;
22851;SDS011;11592;45.460;9.240;2023-02-05T18:46:14;5.75;;;2.40;;
22851;SDS011;11592;45.460;9.240;2023-02-05T18:48:42;9.23;;;3.47;;
22851;SDS011;11592;45.460;9.240;2023-02-05T18:51:13;6.20;;;2.58;;
22851;SDS011;11592;45.460;9.240;2023-02-05T18:53:41;5.95;;;2.70;;
22851;SDS011;11592;45.460;9.240;2023-02-05T18:56:10;6.78;;;2.17;;
22851;SDS011;11592;45.460;9.240;2023-02-05T18:58:39;10.35;;;2.70;;